Time;durP1;ratioP1;P1;durP2;ratioP2;P2;SDS_P1;SDS_P2;PMS_P1;PMS_P2;Temp;Humidity;BMP_temperature;BMP_pressure;BME280_temperature;BME280_humidity;BME280_pressure;Samples;Min_cycle;Max_cycle;Signal;HPM_P1;HPM_P2
2021/08/09 00:02:15;;;;;;;5.23;1.97;;;;;;;12.50;85.03;96477.59;5068521;28;20121;-78
2021/08/09 00:04:40;;;;;;;6.50;1.77;;;;;;;12.48;84.60;96478.78;5054983;28;20016;-77
2021/08/09 00:07:07;;;;;;;2.93;1.50;;;;;;;12.41;85.14;96478.63;5076901;28;20078;-78
2021/08/09 00:09:33;;;;;;;3.47;1.77;;;;;;;12.43;85.43;96479.25;5085738;28;20031;-77
2021/08/09 00:12:00;;;;;;;6.27;1.90;;;;;;;12.39;84.96;96477.94;5068766;28;20025;-79
2021/08/09 00:14:26;;;;;;;4.53;1.60;;;;;;;12.38;85.60;96476.31;5052341;28;20456;-78
2021/08/09 00:16:52;;;;;;;5.60;1.50;;;;;;;12.36;85.89;96480.91;5075661;28;20033;-78
2021/08/09 00:19:17;;;;;;;6.27;1.83;;;;;;;12.34;85.87;96480.25;5073309;28;20942;-78
2021/08/09 00:21:43;;;;;;;4.77;2.10;;;;;;;12.24;86.79;96477.78;5078093;28;20028;-77
2021/08/09 00:24:09;;;;;;;4.73;1.93;;;;;;;12.25;86.83;96481.25;5067421;28;20029;-78
2021/08/09 00:26:34;;;;;;;5.07;1.60;;;;;;;12.16;87.66;96469.03;5078021;28;20095;-78
2021/08/09 00:29:00;;;;;;;4.80;1.60;;;;;;;12.14;87.92;96473.63;5060122;28;20515;-77
2021/08/09 00:31:27;;;;;;;6.53;1.90;;;;;;;12.13;88.09;96483.34;5070949;28;20500;-78
2021/08/09 00:33:53;;;;;;;5.93;1.83;;;;;;;12.11;88.09;96479.25;5080350;28;20055;-77
2021/08/09 00:36:18;;;;;;;4.40;1.90;;;;;;;12.03;88.10;96478.22;5064014;28;20493;-77
2021/08/09 00:38:47;;;;;;;6.60;2.20;;;;;;;12.04;88.90;96479.06;5074928;28;20033;-77
2021/08/09 00:41:12;;;;;;;5.63;1.90;;;;;;;12.08;88.30;96471.66;5063391;28;20448;-78
2021/08/09 00:43:40;;;;;;;4.67;1.80;;;;;;;12.10;88.13;96477.59;5078730;28;20032;-78
2021/08/09 00:46:06;;;;;;;3.57;1.80;;;;;;;12.06;88.95;96471.81;5071398;28;20032;-78
2021/08/09 00:48:36;;;;;;;3.73;1.93;;;;;;;12.01;88.91;96474.13;5075735;28;20059;-78
2021/08/09 00:51:07;;;;;;;24.73;7.27;;;;;;;11.86;89.61;96468.66;5050444;28;20100;-77
2021/08/09 00:53:33;;;;;;;65.77;21.97;;;;;;;11.77;90.64;96472.25;5053542;28;20040;-77
2021/08/09 00:56:02;;;;;;;58.33;22.07;;;;;;;11.62;91.58;96471.19;5073669;28;20095;-78
2021/08/09 00:58:29;;;;;;;40.67;15.30;;;;;;;11.58;92.27;96475.94;5073585;28;20127;-77
2021/08/09 01:00:55;;;;;;;42.80;14.23;;;;;;;11.59;92.30;96476.78;5069832;28;20484;-78
2021/08/09 01:03:21;;;;;;;24.17;8.70;;;;;;;11.59;92.15;96479.41;5083418;28;20020;-77
2021/08/09 01:05:49;;;;;;;21.13;7.07;;;;;;;11.55;92.91;96474.47;5061373;28;20669;-77
2021/08/09 01:09:14;;;;;;;16.27;6.30;;;;;;;11.45;93.03;96479.03;5064313;28;20123;-77
2021/08/09 01:11:51;;;;;;;8.17;3.37;;;;;;;11.36;93.51;96479.97;5008691;28;20131;-77
2021/08/09 01:14:51;;;;;;;6.43;3.13;;;;;;;11.34;93.75;96476.69;5069713;28;20062;-77
2021/08/09 01:17:21;;;;;;;8.90;3.00;;;;;;;11.37;93.69;96476.38;5075586;28;20126;-77
2021/08/09 01:20:07;;;;;;;8.83;2.47;;;;;;;11.47;94.58;96471.81;5073618;28;20033;-77
2021/08/09 01:22:51;;;;;;;4.10;1.80;;;;;;;11.37;93.68;96480.78;5063344;28;20461;-77
2021/08/09 01:25:42;;;;;;;4.60;1.90;;;;;;;11.24;95.00;96470.72;5069197;28;20033;-77
2021/08/09 01:28:10;;;;;;;5.30;1.83;;;;;;;11.18;94.80;96469.53;5078336;28;20127;-77
2021/08/09 01:30:38;;;;;;;43.97;14.63;;;;;;;11.19;94.49;96468.53;5075044;28;20020;-77
2021/08/09 01:33:09;;;;;;;48.90;18.80;;;;;;;11.20;94.14;96472.00;5065138;28;20024;-77
2021/08/09 01:35:37;;;;;;;29.13;10.73;;;;;;;11.26;93.75;96469.56;5082459;28;20031;-78
2021/08/09 01:38:05;;;;;;;12.57;4.20;;;;;;;11.27;93.94;96473.03;5074799;28;20151;-78
2021/08/09 01:40:36;;;;;;;6.03;2.20;;;;;;;11.37;92.90;96468.47;5073341;28;20028;-79
2021/08/09 01:43:04;;;;;;;5.73;2.13;;;;;;;11.43;92.33;96475.72;5067397;28;20033;-78
2021/08/09 01:45:31;;;;;;;5.70;1.87;;;;;;;11.44;92.24;96472.13;5067981;28;20127;-78
2021/08/09 01:47:58;;;;;;;5.43;1.60;;;;;;;11.43;91.78;96472.25;5078211;28;20046;-77
2021/08/09 01:50:27;;;;;;;4.20;1.60;;;;;;;11.39;91.97;96469.13;5054389;28;20025;-77
2021/08/09 01:52:54;;;;;;;6.87;1.90;;;;;;;11.40;91.91;96473.44;5069138;28;20127;-78
2021/08/09 01:55:21;;;;;;;12.27;3.40;;;;;;;11.39;92.17;96477.03;5077192;28;20506;-77
2021/08/09 01:57:51;;;;;;;8.67;2.53;;;;;;;11.29;92.21;96473.69;5060671;28;20378;-77
2021/08/09 02:00:19;;;;;;;7.93;2.93;;;;;;;11.25;92.36;96472.38;5058680;28;20028;-77
2021/08/09 02:02:51;;;;;;;8.43;3.27;;;;;;;11.24;92.53;96475.97;5068659;28;20665;-77
2021/08/09 02:05:18;;;;;;;6.43;2.10;;;;;;;11.22;93.05;96472.66;5075932;28;20028;-77
2021/08/09 02:08:11;;;;;;;4.03;1.70;;;;;;;11.16;93.18;96468.03;5063232;28;20056;-78
2021/08/09 02:10:37;;;;;;;4.83;1.60;;;;;;;11.21;92.80;96477.13;5058362;28;20058;-78
2021/08/09 02:13:16;;;;;;;5.27;1.50;;;;;;;11.14;93.03;96472.66;5051366;28;20016;-78
2021/08/09 02:16:00;;;;;;;5.57;1.70;;;;;;;11.14;93.05;96477.91;5059220;28;20570;-78
2021/08/09 02:19:01;;;;;;;6.43;1.93;;;;;;;11.04;93.30;96476.22;5060079;28;20028;-77
2021/08/09 02:21:47;;;;;;;7.13;2.40;;;;;;;10.93;93.66;96473.84;5067655;28;20036;-77
2021/08/09 02:24:27;;;;;;;11.43;4.43;;;;;;;10.84;94.42;96470.31;5061138;28;20033;-77
2021/08/09 02:26:59;;;;;;;25.37;9.93;;;;;;;10.86;94.81;96470.16;5053125;28;20043;-78
2021/08/09 02:29:32;;;;;;;25.27;9.27;;;;;;;10.91;94.25;96465.28;5069567;28;20037;-77
2021/08/09 02:32:01;;;;;;;19.23;6.97;;;;;;;10.90;94.75;96466.25;5048892;28;20044;-77
2021/08/09 02:34:34;;;;;;;8.23;2.87;;;;;;;10.85;94.63;96465.88;5052072;28;20455;-77
2021/08/09 02:37:05;;;;;;;7.63;2.37;;;;;;;10.86;94.71;96467.53;5075888;28;20055;-77
2021/08/09 02:39:31;;;;;;;6.90;2.33;;;;;;;10.78;95.05;96470.13;5064590;28;20040;-77
2021/08/09 02:41:59;;;;;;;7.73;2.43;;;;;;;10.77;95.26;96466.66;5066286;28;20030;-77
2021/08/09 02:44:27;;;;;;;7.10;2.30;;;;;;;10.83;94.91;96467.84;5068381;28;20036;-78
2021/08/09 02:46:55;;;;;;;7.33;2.23;;;;;;;10.82;94.62;96463.56;5053491;28;20013;-77
2021/08/09 02:49:21;;;;;;;5.33;2.00;;;;;;;10.79;94.83;96467.31;5072977;28;20025;-77
2021/08/09 02:51:48;;;;;;;3.63;1.70;;;;;;;10.82;94.77;96472.28;5066594;28;20028;-77
2021/08/09 02:54:17;;;;;;;3.87;1.60;;;;;;;10.87;94.80;96473.66;5075331;28;20096;-77
2021/08/09 02:56:45;;;;;;;3.13;1.60;;;;;;;10.92;93.99;96479.25;5072506;28;20045;-77
2021/08/09 02:59:11;;;;;;;3.93;1.60;;;;;;;10.86;94.09;96488.56;5079327;28;20415;-77
2021/08/09 03:01:39;;;;;;;2.93;1.50;;;;;;;10.79;94.99;96483.09;5074710;28;20059;-77
2021/08/09 03:04:10;;;;;;;5.87;2.73;;;;;;;10.84;94.61;96490.56;5054414;28;20016;-77
2021/08/09 03:06:37;;;;;;;5.13;1.70;;;;;;;10.80;94.94;96491.84;5051438;28;20032;-77
2021/08/09 03:09:05;;;;;;;4.13;1.70;;;;;;;10.82;94.61;96493.31;5061843;28;20033;-77
2021/08/09 03:11:34;;;;;;;5.00;1.70;;;;;;;10.71;95.57;96495.41;5073657;28;20136;-77
2021/08/09 03:14:01;;;;;;;4.40;1.77;;;;;;;10.74;95.62;96502.97;5076509;28;20020;-77
2021/08/09 03:16:27;;;;;;;4.67;1.60;;;;;;;10.75;95.59;96502.00;5059597;28;20029;-77
2021/08/09 03:18:53;;;;;;;6.13;2.10;;;;;;;10.68;96.01;96506.22;5075947;28;20113;-77
2021/08/09 03:21:19;;;;;;;4.93;2.30;;;;;;;10.69;95.52;96513.94;5061120;28;20045;-77
2021/08/09 03:23:45;;;;;;;10.00;2.10;;;;;;;10.62;96.25;96508.47;5079497;28;20012;-77
2021/08/09 03:26:11;;;;;;;4.03;1.80;;;;;;;10.60;96.60;96510.44;5061044;28;20085;-77
2021/08/09 03:28:37;;;;;;;5.57;2.03;;;;;;;10.61;96.61;96511.25;5080760;28;20105;-77
2021/08/09 03:31:04;;;;;;;4.30;2.00;;;;;;;10.53;96.70;96513.81;5066548;28;20027;-77
2021/08/09 03:33:31;;;;;;;5.00;2.43;;;;;;;10.46;97.10;96503.09;5066592;28;20036;-77
2021/08/09 03:35:57;;;;;;;6.27;2.40;;;;;;;10.28;97.99;96510.97;5062873;28;20022;-78
2021/08/09 03:38:23;;;;;;;5.50;2.40;;;;;;;10.08;100.00;96514.69;5074085;28;20048;-77
2021/08/09 03:40:49;;;;;;;5.00;2.53;;;;;;;10.10;99.99;96523.28;5059444;28;20032;-77
2021/08/09 03:43:15;;;;;;;4.03;2.10;;;;;;;10.07;100.00;96526.19;5076073;28;20115;-77
2021/08/09 03:45:42;;;;;;;4.37;1.90;;;;;;;10.18;99.61;96520.72;5051817;28;20024;-78
2021/08/09 03:48:10;;;;;;;6.03;2.20;;;;;;;10.20;98.71;96512.69;5052103;28;20024;-77
2021/08/09 03:50:37;;;;;;;7.70;2.80;;;;;;;10.21;98.76;96514.34;5061959;28;20064;-77
2021/08/09 03:53:03;;;;;;;5.40;2.00;;;;;;;10.15;99.39;96515.75;5070674;28;20078;-77
2021/08/09 03:55:28;;;;;;;6.27;2.17;;;;;;;10.14;99.05;96500.97;5073839;28;20040;-77
2021/08/09 03:57:54;;;;;;;5.57;2.00;;;;;;;10.13;99.87;96497.53;5078353;28;20027;-78
2021/08/09 04:00:20;;;;;;;4.33;2.00;;;;;;;10.15;99.48;96500.81;5075629;28;20036;-78
2021/08/09 04:02:48;;;;;;;6.80;2.60;;;;;;;10.08;99.60;96498.94;5046259;28;20025;-77
2021/08/09 04:05:30;;;;;;;6.97;2.70;;;;;;;9.95;100.00;96506.34;5077027;28;20051;-77
2021/08/09 04:07:56;;;;;;;4.53;1.97;;;;;;;9.83;100.00;96509.22;5068104;28;20027;-77
2021/08/09 04:10:21;;;;;;;5.47;2.37;;;;;;;9.87;100.00;96517.63;5057132;28;20104;-77
2021/08/09 04:12:48;;;;;;;5.53;2.20;;;;;;;9.87;100.00;96522.88;5059235;28;20032;-78
2021/08/09 04:15:15;;;;;;;7.07;2.67;;;;;;;9.78;100.00;96510.59;5050750;28;20025;-77
2021/08/09 04:17:42;;;;;;;6.00;2.60;;;;;;;9.71;100.00;96522.69;5081232;28;20456;-78
2021/08/09 04:20:09;;;;;;;3.80;2.03;;;;;;;9.78;100.00;96516.69;5057008;28;20116;-78
2021/08/09 04:22:34;;;;;;;5.93;2.70;;;;;;;10.06;100.00;96517.50;5082744;28;20040;-77
2021/08/09 04:25:02;;;;;;;6.97;1.93;;;;;;;10.04;100.00;96508.09;5058176;28;20445;-77
2021/08/09 04:27:28;;;;;;;7.47;2.20;;;;;;;9.98;99.86;96506.88;5055195;28;20116;-77
2021/08/09 04:29:54;;;;;;;6.57;1.80;;;;;;;10.01;99.39;96509.22;5065128;28;20545;-77
2021/08/09 04:32:20;;;;;;;9.53;2.10;;;;;;;10.17;99.15;96510.38;5048992;28;20028;-77
2021/08/09 04:34:46;;;;;;;4.60;2.03;;;;;;;10.27;98.14;96508.53;5063347;28;20453;-77
2021/08/09 04:37:12;;;;;;;7.07;2.07;;;;;;;10.31;97.69;96496.72;5069263;28;20505;-77
2021/08/09 04:39:39;;;;;;;3.70;1.80;;;;;;;10.32;98.31;96493.09;5057905;28;20065;-77
2021/08/09 04:42:05;;;;;;;3.97;2.33;;;;;;;10.28;98.49;96499.66;5062745;28;20033;-78
2021/08/09 04:44:32;;;;;;;4.47;1.83;;;;;;;10.25;99.05;96499.91;5057997;28;20030;-77
2021/08/09 04:46:58;;;;;;;5.57;2.13;;;;;;;10.24;99.17;96503.53;5065536;28;20451;-77
2021/08/09 04:49:24;;;;;;;5.47;1.97;;;;;;;10.33;98.81;96507.91;5037778;28;20020;-77
2021/08/09 04:51:54;;;;;;;4.10;1.73;;;;;;;10.36;98.44;96510.22;5071170;28;20424;-77
2021/08/09 04:54:20;;;;;;;5.00;2.70;;;;;;;10.42;98.40;96501.72;5063914;28;20057;-77
2021/08/09 04:56:47;;;;;;;3.73;1.90;;;;;;;10.49;98.30;96502.78;5077704;28;20071;-77
2021/08/09 04:59:14;;;;;;;4.87;1.60;;;;;;;10.49;98.55;96505.41;5052090;28;20578;-76
2021/08/09 05:01:40;;;;;;;4.27;1.53;;;;;;;10.47;98.96;96507.38;5054950;28;20020;-78
2021/08/09 05:04:07;;;;;;;7.23;2.00;;;;;;;10.59;98.00;96505.31;5055039;28;20021;-78
2021/08/09 05:06:33;;;;;;;6.97;2.40;;;;;;;10.65;98.03;96511.78;5066789;28;20033;-77
2021/08/09 05:08:59;;;;;;;5.87;2.13;;;;;;;10.79;97.01;96508.59;5070393;28;20812;-77
2021/08/09 05:11:28;;;;;;;5.47;1.80;;;;;;;10.86;96.46;96504.38;5079726;28;20016;-78
2021/08/09 05:14:00;;;;;;;7.07;2.20;;;;;;;10.98;96.42;96505.78;5081237;28;20550;-77
2021/08/09 05:16:26;;;;;;;3.97;2.00;;;;;;;11.20;95.54;96506.22;5076985;28;20032;-77
2021/08/09 05:18:55;;;;;;;10.07;2.80;;;;;;;11.31;94.91;96505.97;5074302;28;20031;-77
2021/08/09 05:21:21;;;;;;;6.47;1.87;;;;;;;11.45;93.93;96507.19;5073852;28;20028;-77
2021/08/09 05:23:46;;;;;;;3.73;2.07;;;;;;;11.80;92.79;96506.13;5064570;28;20118;-77
2021/08/09 05:26:13;;;;;;;4.90;2.10;;;;;;;11.82;92.38;96513.91;5089122;28;20036;-77
2021/08/09 05:28:38;;;;;;;3.30;1.60;;;;;;;11.90;92.43;96512.13;5070551;28;20072;-77
2021/08/09 05:31:04;;;;;;;6.50;1.97;;;;;;;11.98;92.11;96513.97;5072701;28;20029;-77
2021/08/09 05:33:31;;;;;;;5.13;2.03;;;;;;;12.05;92.02;96511.53;5080689;28;20025;-77
2021/08/09 05:35:57;;;;;;;4.37;1.63;;;;;;;12.19;92.24;96513.53;5074611;28;20036;-77
2021/08/09 05:38:22;;;;;;;6.50;2.20;;;;;;;12.13;92.81;96506.25;5073831;28;20094;-77
2021/08/09 05:40:48;;;;;;;3.93;1.70;;;;;;;12.02;92.16;96505.59;5075779;28;20408;-77
2021/08/09 05:43:14;;;;;;;7.00;1.93;;;;;;;11.88;94.91;96497.50;5075528;28;20024;-77
2021/08/09 05:45:40;;;;;;;3.67;1.93;;;;;;;11.78;95.37;96500.22;5067509;28;20043;-77
2021/08/09 05:48:06;;;;;;;5.17;1.73;;;;;;;12.37;92.25;96495.72;5069187;28;20876;-77
2021/08/09 05:50:33;;;;;;;3.40;1.60;;;;;;;12.77;89.25;96494.09;5051547;28;20052;-77
2021/08/09 05:53:07;;;;;;;4.97;1.70;;;;;;;12.73;89.28;96498.06;5053835;28;20436;-77
2021/08/09 05:55:34;;;;;;;4.70;1.90;;;;;;;12.94;88.54;96508.94;5047960;28;20071;-77
2021/08/09 05:58:03;;;;;;;5.50;1.73;;;;;;;13.35;86.48;96498.31;5067500;28;20024;-77
2021/08/09 06:00:31;;;;;;;4.50;1.80;;;;;;;13.50;85.66;96505.53;5085805;28;20467;-77
2021/08/09 06:03:00;;;;;;;8.27;2.03;;;;;;;13.84;84.74;96508.66;5054793;28;20024;-76
2021/08/09 06:05:53;;;;;;;4.87;1.73;;;;;;;14.57;81.20;96501.31;5058391;28;20032;-76
2021/08/09 06:08:22;;;;;;;11.60;2.55;;;;;;;14.48;81.37;96502.31;5073909;28;20047;-77
2021/08/09 06:10:49;;;;;;;4.40;1.80;;;;;;;14.28;81.02;96499.31;5049979;28;20115;-76
2021/08/09 06:13:16;;;;;;;6.37;1.70;;;;;;;14.82;79.27;96494.81;5054636;28;20060;-76
2021/08/09 06:15:43;;;;;;;3.37;1.70;;;;;;;15.37;78.32;96495.41;5064559;28;20028;-77
2021/08/09 06:18:10;;;;;;;7.20;2.17;;;;;;;15.57;76.45;96501.81;5065606;28;20064;-77
2021/08/09 06:20:38;;;;;;;4.50;1.20;;;;;;;15.28;75.81;96502.63;5049930;28;20044;-76
2021/08/09 06:23:05;;;;;;;5.50;1.53;;;;;;;15.92;74.09;96495.94;5066782;28;20038;-77
2021/08/09 06:25:32;;;;;;;3.47;1.33;;;;;;;15.94;73.33;96497.41;5074908;28;20800;-76
2021/08/09 06:27:58;;;;;;;5.30;1.50;;;;;;;16.50;71.16;96502.91;5055840;28;20060;-77
2021/08/09 06:30:23;;;;;;;3.87;1.27;;;;;;;17.04;70.19;96496.25;5067541;28;20028;-77
2021/08/09 06:32:51;;;;;;;3.87;1.40;;;;;;;16.87;69.53;96492.22;5070891;28;20024;-77
2021/08/09 06:35:18;;;;;;;5.13;1.60;;;;;;;16.89;70.63;96496.31;5069047;28;20644;-77
2021/08/09 06:37:43;;;;;;;5.88;1.40;;;;;;;17.49;68.24;96499.38;5060954;28;20028;-77
2021/08/09 06:40:11;;;;;;;6.25;1.52;;;;;;;17.77;66.44;96495.88;5062052;28;20893;-77
2021/08/09 06:42:38;;;;;;;7.43;1.60;;;;;;;18.11;64.45;96498.47;5057534;28;20032;-77
2021/08/09 06:45:15;;;;;;;2.42;1.15;;;;;;;18.74;63.16;96494.72;5049945;28;20032;-77
2021/08/09 06:47:41;;;;;;;3.65;1.48;;;;;;;19.04;61.43;96497.78;5078482;28;20109;-77
2021/08/09 06:50:08;;;;;;;3.05;1.20;;;;;;;18.87;61.56;96493.91;5054051;28;20024;-77
2021/08/09 06:52:33;;;;;;;3.25;1.35;;;;;;;19.44;60.27;96495.88;5061782;28;20028;-77
2021/08/09 06:54:59;;;;;;;2.88;1.23;;;;;;;19.98;57.75;96504.59;5056388;28;20032;-77
2021/08/09 06:57:27;;;;;;;4.63;1.15;;;;;;;20.33;56.05;96499.69;5075809;28;20042;-77
2021/08/09 06:59:54;;;;;;;5.97;1.67;;;;;;;20.56;55.69;96485.00;5086883;28;20081;-77
2021/08/09 07:02:20;;;;;;;4.68;1.30;;;;;;;19.52;58.05;96494.88;5060965;28;20042;-77
2021/08/09 07:04:47;;;;;;;3.47;1.20;;;;;;;20.10;56.59;96488.72;5074727;28;20016;-78
2021/08/09 07:07:13;;;;;;;1.80;0.98;;;;;;;19.71;56.52;96488.66;5061069;28;20094;-77
2021/08/09 07:09:38;;;;;;;3.63;0.93;;;;;;;20.45;53.52;96476.59;5070391;28;20076;-77
2021/08/09 07:12:04;;;;;;;4.57;0.95;;;;;;;20.68;52.56;96478.72;5069332;28;20070;-77
2021/08/09 07:14:30;;;;;;;3.38;1.00;;;;;;;20.84;51.86;96488.09;5063269;28;20788;-77
2021/08/09 07:16:58;;;;;;;1.75;0.80;;;;;;;21.20;51.80;96481.19;5059014;28;20169;-78
2021/08/09 07:19:24;;;;;;;3.83;1.30;;;;;;;20.92;52.15;96487.81;5068144;28;20020;-77
2021/08/09 07:21:51;;;;;;;4.32;1.17;;;;;;;21.24;50.20;96484.25;5055358;28;20060;-75
2021/08/09 07:24:18;;;;;;;4.20;1.52;;;;;;;21.33;49.93;96477.59;5041371;28;20025;-78
2021/08/09 07:26:44;;;;;;;4.05;1.00;;;;;;;21.28;50.57;96477.41;5053895;28;20025;-77
2021/08/09 07:29:11;;;;;;;2.63;1.35;;;;;;;21.41;51.22;96467.44;5073618;28;20048;-78
2021/08/09 07:31:37;;;;;;;3.38;1.08;;;;;;;21.74;50.34;96473.47;5060019;28;20037;-78
2021/08/09 07:34:03;;;;;;;2.08;0.80;;;;;;;21.92;49.33;96470.75;5064852;28;20111;-78
2021/08/09 07:36:29;;;;;;;5.15;1.20;;;;;;;22.42;45.46;96469.72;5068830;28;20401;-78
2021/08/09 07:38:55;;;;;;;3.20;0.98;;;;;;;21.67;48.83;96462.84;5047133;28;20514;-78
2021/08/09 07:41:20;;;;;;;4.68;0.93;;;;;;;21.67;48.39;96475.41;5082890;28;20082;-78
2021/08/09 07:43:48;;;;;;;3.22;0.82;;;;;;;22.18;48.50;96466.97;5076504;28;20028;-78
2021/08/09 07:46:15;;;;;;;4.07;1.65;;;;;;;23.68;44.00;96467.69;5061908;28;20794;-78
2021/08/09 07:48:42;;;;;;;3.33;1.20;;;;;;;23.81;44.78;96467.41;5055095;28;20019;-78
2021/08/09 07:51:08;;;;;;;2.60;0.85;;;;;;;23.73;43.20;96473.94;5068444;28;20028;-77
2021/08/09 07:53:34;;;;;;;5.22;1.02;;;;;;;24.61;40.98;96474.59;5067325;28;20081;-78
2021/08/09 07:55:59;;;;;;;2.25;0.70;;;;;;;23.62;41.19;96482.81;5074909;28;20024;-77
2021/08/09 07:58:26;;;;;;;2.25;0.80;;;;;;;24.00;41.12;96484.16;5078430;28;20024;-78
2021/08/09 08:00:53;;;;;;;3.00;0.90;;;;;;;23.67;40.41;96477.53;5056888;28;20786;-78
2021/08/09 08:03:20;;;;;;;1.98;0.60;;;;;;;25.54;37.79;96475.00;5062405;28;20044;-78
2021/08/09 08:05:47;;;;;;;2.47;0.70;;;;;;;24.62;38.71;96486.19;5057755;28;20028;-78
2021/08/09 08:08:13;;;;;;;2.58;0.90;;;;;;;24.79;38.54;96478.13;5047865;28;20029;-77
2021/08/09 08:10:40;;;;;;;3.10;1.02;;;;;;;25.58;36.65;96476.13;5051448;28;20028;-78
2021/08/09 08:13:06;;;;;;;5.32;1.20;;;;;;;25.54;38.27;96479.56;5074490;28;20489;-78
2021/08/09 08:15:32;;;;;;;3.17;1.27;;;;;;;23.96;40.21;96486.50;5053951;28;20580;-78
2021/08/09 08:17:57;;;;;;;1.77;0.70;;;;;;;25.24;37.58;96477.25;5065296;28;20161;-81
2021/08/09 08:20:25;;;;;;;2.97;0.95;;;;;;;25.72;38.96;96475.78;5078639;28;20028;-78
2021/08/09 08:22:51;;;;;;;1.92;0.90;;;;;;;26.71;35.44;96475.59;5057318;28;20020;-78
2021/08/09 08:25:19;;;;;;;2.90;0.93;;;;;;;26.82;35.68;96476.50;5076012;28;20557;-78
2021/08/09 08:27:46;;;;;;;4.30;0.90;;;;;;;27.97;34.46;96478.69;5068520;28;20031;-79
2021/08/09 08:30:12;;;;;;;2.28;0.80;;;;;;;26.56;35.84;96495.16;5088529;28;20033;-79
2021/08/09 08:32:39;;;;;;;4.13;1.23;;;;;;;26.08;36.31;96494.03;5088245;28;20024;-78
2021/08/09 08:35:06;;;;;;;5.40;1.52;;;;;;;26.26;37.94;96489.41;5082120;28;20031;-78
2021/08/09 08:37:31;;;;;;;2.15;0.88;;;;;;;27.53;36.03;96488.94;5076101;28;20051;-79
2021/08/09 08:39:57;;;;;;;2.80;1.00;;;;;;;27.64;35.86;96488.75;5073693;28;20616;-80
2021/08/09 08:42:24;;;;;;;6.82;1.40;;;;;;;25.79;36.81;96487.19;5078536;28;20056;-78
2021/08/09 08:44:50;;;;;;;3.03;1.02;;;;;;;26.21;36.79;96492.03;5061210;28;20517;-79
2021/08/09 08:47:19;;;;;;;2.33;0.90;;;;;;;27.57;34.35;96487.34;5067421;28;20035;-78
2021/08/09 08:49:47;;;;;;;1.77;0.93;;;;;;;27.28;34.93;96495.78;5063507;28;20024;-79
2021/08/09 08:52:15;;;;;;;6.93;5.15;;;;;;;28.03;33.54;96485.69;5063117;28;20024;-79
2021/08/09 08:54:41;;;;;;;2.28;1.05;;;;;;;27.49;34.21;96497.56;5074471;28;20027;-79
2021/08/09 08:57:18;;;;;;;3.20;1.33;;;;;;;26.97;35.74;96484.75;5068759;28;20595;-78
2021/08/09 08:59:45;;;;;;;2.17;0.88;;;;;;;28.47;33.99;96490.78;5048775;28;20389;-79
2021/08/09 09:02:35;;;;;;;1.73;0.75;;;;;;;27.89;32.63;96485.38;5075529;28;20572;-79
2021/08/09 09:05:09;;;;;;;3.13;0.90;;;;;;;27.53;33.50;96488.94;5072567;28;20077;-78
2021/08/09 09:07:35;;;;;;;2.08;1.00;;;;;;;27.26;33.78;96481.72;5058282;28;20036;-79
2021/08/09 09:10:18;;;;;;;3.45;0.90;;;;;;;26.91;34.33;96488.47;5077638;28;20056;-78
2021/08/09 09:13:05;;;;;;;;;;;;;;;25.79;36.93;96487.19;5071803;28;20056;-78
2021/08/09 09:15:31;;;;;;;3.35;0.98;;;;;;;26.40;34.50;96489.84;5044615;28;19917;-79
2021/08/09 09:17:57;;;;;;;2.55;0.80;;;;;;;26.30;32.89;96477.06;5060075;28;20464;-78
2021/08/09 09:20:28;;;;;;;2.50;0.70;;;;;;;26.27;31.98;96488.34;5050430;28;20036;-78
2021/08/09 09:23:15;;;;;;;2.72;0.88;;;;;;;25.92;34.69;96483.31;5076283;28;20020;-78
2021/08/09 09:25:41;;;;;;;1.92;0.70;;;;;;;26.71;34.21;96485.59;5048317;28;20040;-78
2021/08/09 09:28:25;;;;;;;1.83;0.90;;;;;;;27.20;33.90;96490.88;5067403;28;20021;-78
2021/08/09 09:30:52;;;;;;;2.35;0.90;;;;;;;27.39;32.86;96480.47;5066007;28;20023;-78
2021/08/09 09:33:18;;;;;;;3.92;1.13;;;;;;;26.46;33.45;96488.78;5070613;28;20017;-79
2021/08/09 09:35:44;;;;;;;1.75;1.00;;;;;;;25.92;34.93;96483.31;5059655;28;20127;-79
2021/08/09 09:38:09;;;;;;;2.20;0.95;;;;;;;26.55;34.01;96481.91;5067315;28;20497;-79
2021/08/09 09:40:40;;;;;;;2.47;0.88;;;;;;;26.85;32.46;96491.38;5071398;28;20040;-78
2021/08/09 09:43:20;;;;;;;1.92;0.85;;;;;;;28.32;31.65;96485.28;5060079;28;20025;-79
2021/08/09 09:45:53;;;;;;;1.13;0.70;;;;;;;27.63;29.98;96486.28;5060531;28;20032;-79
2021/08/09 09:48:31;;;;;;;1.95;0.70;;;;;;;27.02;30.93;96492.06;5076063;28;20489;-79
2021/08/09 09:51:14;;;;;;;1.77;0.88;;;;;;;28.75;30.74;96494.88;5072246;28;20042;-79
2021/08/09 09:53:40;;;;;;;;;;;;;;;28.02;30.48;96496.78;5061273;28;20028;-79
2021/08/09 09:56:07;;;;;;;2.33;0.80;;;;;;;28.15;29.61;96499.00;5078067;28;19916;-79
2021/08/09 09:58:38;;;;;;;2.58;0.82;;;;;;;26.88;30.90;96499.75;5075260;28;20036;-79
2021/08/09 10:01:06;;;;;;;2.88;0.98;;;;;;;27.85;30.38;96492.38;5070191;28;20032;-78
2021/08/09 10:03:33;;;;;;;2.45;0.88;;;;;;;28.34;30.16;96500.16;5053467;28;20050;-78
2021/08/09 10:06:00;;;;;;;1.85;0.90;;;;;;;27.98;31.74;96487.59;5079625;28;20028;-79
2021/08/09 10:08:29;;;;;;;2.17;0.88;;;;;;;29.99;27.83;96485.56;5074527;28;20047;-79
2021/08/09 10:10:57;;;;;;;3.35;1.33;;;;;;;29.48;29.27;96483.78;5065743;28;20036;-79
2021/08/09 10:13:23;;;;;;;1.90;0.90;;;;;;;29.39;27.41;96488.13;5057037;28;20029;-79
2021/08/09 10:15:52;;;;;;;3.33;0.90;;;;;;;28.74;29.30;96497.81;5068226;28;20025;-79
2021/08/09 10:18:29;;;;;;;3.53;1.00;;;;;;;27.90;30.68;96487.03;5075657;28;20111;-79
2021/08/09 10:20:57;;;;;;;2.75;0.80;;;;;;;28.36;30.01;96500.69;5080966;28;20040;-79
2021/08/09 10:23:36;;;;;;;2.53;0.80;;;;;;;28.27;29.41;96494.19;5078666;28;20524;-79
2021/08/09 10:26:03;;;;;;;2.33;0.90;;;;;;;28.77;28.84;96490.00;5077624;28;20708;-79
2021/08/09 10:29:03;;;;;;;2.17;0.73;;;;;;;29.63;27.83;96485.66;5075978;28;20025;-79
2021/08/09 10:31:33;;;;;;;2.13;0.88;;;;;;;29.39;29.73;96484.59;5031078;28;20067;-78
2021/08/09 10:33:59;;;;;;;5.15;2.10;;;;;;;28.93;30.32;96492.72;5075579;28;20576;-79
2021/08/09 10:36:25;;;;;;;3.83;1.63;;;;;;;29.39;28.26;96495.44;5059764;28;20025;-79
2021/08/09 10:38:54;;;;;;;1.85;0.85;;;;;;;29.21;27.75;96500.34;5074431;28;20035;-79
2021/08/09 10:41:30;;;;;;;3.92;1.42;;;;;;;28.82;29.88;96498.13;5077226;28;20029;-79
2021/08/09 10:44:06;;;;;;;3.05;0.98;;;;;;;27.77;31.22;96492.06;5088548;28;20070;-79
2021/08/09 10:46:36;;;;;;;4.20;1.95;;;;;;;29.03;30.41;96484.63;5080698;28;20029;-79
2021/08/09 10:49:03;;;;;;;3.60;1.50;;;;;;;30.38;27.66;96476.72;5072697;28;20029;-79
2021/08/09 10:51:50;;;;;;;2.45;1.38;;;;;;;30.71;24.73;96470.53;5070688;28;20564;-78
2021/08/09 10:54:27;;;;;;;3.33;0.95;;;;;;;29.25;27.70;96484.34;5077694;28;20094;-79
2021/08/09 10:56:55;;;;;;;1.73;0.90;;;;;;;29.29;29.33;96486.25;5071521;28;20098;-79
2021/08/09 10:59:46;;;;;;;4.93;1.80;;;;;;;30.05;28.84;96485.28;5058799;28;20025;-80
2021/08/09 11:02:23;;;;;;;2.20;0.85;;;;;;;30.37;26.86;96488.69;5077996;28;20054;-79
2021/08/09 11:05:14;;;;;;;2.35;0.90;;;;;;;29.73;28.10;96480.22;5061639;28;20614;-79
2021/08/09 11:07:41;;;;;;;2.22;1.00;;;;;;;29.21;28.39;96488.66;5075018;28;20082;-79
2021/08/09 11:10:07;;;;;;;2.20;0.80;;;;;;;28.68;30.25;96491.63;5063962;28;20023;-78
2021/08/09 11:12:33;;;;;;;4.35;1.10;;;;;;;30.60;26.61;96485.28;5072716;28;20032;-80
2021/08/09 11:15:00;;;;;;;2.67;0.98;;;;;;;30.22;27.37;96478.72;5073035;28;20028;-79
2021/08/09 11:17:31;;;;;;;4.03;1.13;;;;;;;29.35;27.96;96490.56;5082130;28;20060;-79
2021/08/09 11:20:20;;;;;;;2.17;1.20;;;;;;;28.90;27.83;96489.44;5071554;28;20032;-79
2021/08/09 11:23:07;;;;;;;6.70;4.65;;;;;;;28.90;29.63;96478.63;5056619;28;20036;-79
2021/08/09 11:25:42;;;;;;;2.53;1.00;;;;;;;29.87;27.10;96479.63;5062041;28;20049;-78
2021/08/09 11:28:21;;;;;;;2.60;1.13;;;;;;;29.83;27.92;96482.09;5069418;28;20117;-79
2021/08/09 11:30:58;;;;;;;2.05;1.20;;;;;;;29.39;26.82;96474.59;5074386;28;20059;-79
2021/08/09 11:33:29;;;;;;;3.20;1.08;;;;;;;30.61;25.71;96473.31;5078142;28;20059;-80
2021/08/09 11:36:03;;;;;;;2.67;0.95;;;;;;;29.98;27.14;96481.22;5073442;28;20038;-79
2021/08/09 11:38:49;;;;;;;3.13;1.15;;;;;;;28.88;27.96;96474.59;5079681;28;20558;-79
2021/08/09 11:41:18;;;;;;;5.65;1.15;;;;;;;29.44;28.12;96477.25;5077700;28;20051;-79
2021/08/09 11:43:46;;;;;;;2.33;1.08;;;;;;;28.51;29.62;96491.03;5070804;28;20188;-79
2021/08/09 11:46:17;;;;;;;2.85;1.00;;;;;;;29.53;28.29;96483.75;5052720;28;20103;-79